Reyes, Bolivia
Current Conditions -  °F | °C
As of 8:00 AM on Thursday 18 Dec 2014 (Local Time) from SLSA Reporting Station
Broken Clouds Broken Clouds  
Wind Chill: 79°   Ceiling: 8000
Heat Index: 82°   Visibility: 6mi
Dew Point: 75°   Wind: 7mph
Humidity: 89%   Direction: 340°NNW
Pressure: 29.8"   Gusts: NA
Location:  14.31°S, 67.37°W
Report Text: SLSA 181200Z 34006KT 9999 BKN080 BKN200 26/24 Q1009
Loading
Personal Weather Stations






























Interactive Weather Map New forecast layout! Learn more

10-Day Weather Forecast

Advertisements
Track Severe Weather on mobile